sensor_id;sensor_type;location;lat;lon;timestamp;P1;durP1;ratioP1;P2;durP2;ratioP2
77984;SDS011;67177;47.240;-1.546;2023-06-24T00:01:27;3.40;;;1.10;;
77984;SDS011;67177;47.240;-1.546;2023-06-24T00:03:53;3.33;;;1.08;;
77984;SDS011;67177;47.240;-1.546;2023-06-24T00:06:22;3.27;;;0.90;;
77984;SDS011;67177;47.240;-1.546;2023-06-24T00:08:51;3.17;;;1.00;;
77984;SDS011;67177;47.240;-1.546;2023-06-24T00:11:17;3.05;;;1.05;;
77984;SDS011;67177;47.240;-1.546;2023-06-24T00:13:43;2.63;;;0.80;;
77984;SDS011;67177;47.240;-1.546;2023-06-24T00:16:09;3.08;;;0.90;;
77984;SDS011;67177;47.240;-1.546;2023-06-24T00:18:36;3.20;;;1.00;;
77984;SDS011;67177;47.240;-1.546;2023-06-24T00:21:02;3.00;;;0.90;;
77984;SDS011;67177;47.240;-1.546;2023-06-24T00:23:29;3.25;;;0.98;;
77984;SDS011;67177;47.240;-1.546;2023-06-24T00:25:59;2.75;;;0.80;;
77984;SDS011;67177;47.240;-1.546;2023-06-24T00:28:26;2.60;;;0.80;;
77984;SDS011;67177;47.240;-1.546;2023-06-24T00:30:52;3.27;;;1.00;;
77984;SDS011;67177;47.240;-1.546;2023-06-24T00:33:17;2.88;;;0.85;;
77984;SDS011;67177;47.240;-1.546;2023-06-24T00:35:45;3.65;;;1.05;;
77984;SDS011;67177;47.240;-1.546;2023-06-24T00:38:11;2.77;;;0.90;;
77984;SDS011;67177;47.240;-1.546;2023-06-24T00:40:37;3.50;;;0.88;;
77984;SDS011;67177;47.240;-1.546;2023-06-24T00:43:03;3.25;;;1.00;;
77984;SDS011;67177;47.240;-1.546;2023-06-24T00:45:30;3.15;;;0.98;;
77984;SDS011;67177;47.240;-1.546;2023-06-24T00:47:57;2.97;;;0.83;;
77984;SDS011;67177;47.240;-1.546;2023-06-24T00:50:23;2.63;;;0.90;;
77984;SDS011;67177;47.240;-1.546;2023-06-24T00:52:49;3.03;;;0.80;;
77984;SDS011;67177;47.240;-1.546;2023-06-24T00:55:15;2.60;;;0.80;;
77984;SDS011;67177;47.240;-1.546;2023-06-24T00:57:43;2.72;;;0.82;;
77984;SDS011;67177;47.240;-1.546;2023-06-24T01:00:09;2.60;;;0.80;;
77984;SDS011;67177;47.240;-1.546;2023-06-24T01:02:39;3.25;;;1.00;;
77984;SDS011;67177;47.240;-1.546;2023-06-24T01:05:07;3.07;;;0.97;;
77984;SDS011;67177;47.240;-1.546;2023-06-24T01:07:34;2.80;;;0.90;;
77984;SDS011;67177;47.240;-1.546;2023-06-24T01:10:05;3.35;;;1.00;;
77984;SDS011;67177;47.240;-1.546;2023-06-24T01:12:35;3.22;;;0.90;;
77984;SDS011;67177;47.240;-1.546;2023-06-24T01:15:03;3.38;;;0.85;;
77984;SDS011;67177;47.240;-1.546;2023-06-24T01:17:34;3.23;;;0.93;;
77984;SDS011;67177;47.240;-1.546;2023-06-24T01:37:01;3.63;;;1.08;;
77984;SDS011;67177;47.240;-1.546;2023-06-24T01:40:28;3.72;;;1.13;;
77984;SDS011;67177;47.240;-1.546;2023-06-24T01:42:39;3.78;;;1.10;;
77984;SDS011;67177;47.240;-1.546;2023-06-24T01:45:10;3.37;;;1.00;;
77984;SDS011;67177;47.240;-1.546;2023-06-24T01:47:40;3.83;;;1.10;;
77984;SDS011;67177;47.240;-1.546;2023-06-24T01:50:10;3.05;;;0.82;;
77984;SDS011;67177;47.240;-1.546;2023-06-24T01:52:37;4.20;;;1.05;;
77984;SDS011;67177;47.240;-1.546;2023-06-24T01:55:06;3.35;;;1.10;;
77984;SDS011;67177;47.240;-1.546;2023-06-24T01:57:34;3.50;;;1.00;;
77984;SDS011;67177;47.240;-1.546;2023-06-24T02:00:01;3.88;;;1.17;;
77984;SDS011;67177;47.240;-1.546;2023-06-24T02:02:31;2.90;;;0.90;;
77984;SDS011;67177;47.240;-1.546;2023-06-24T02:04:57;3.10;;;0.80;;
77984;SDS011;67177;47.240;-1.546;2023-06-24T02:07:24;4.20;;;0.93;;
77984;SDS011;67177;47.240;-1.546;2023-06-24T02:09:52;3.57;;;0.90;;
77984;SDS011;67177;47.240;-1.546;2023-06-24T02:12:18;3.95;;;1.10;;
77984;SDS011;67177;47.240;-1.546;2023-06-24T02:14:45;3.40;;;1.08;;
77984;SDS011;67177;47.240;-1.546;2023-06-24T02:17:13;3.35;;;1.08;;
77984;SDS011;67177;47.240;-1.546;2023-06-24T02:19:39;3.88;;;1.10;;
77984;SDS011;67177;47.240;-1.546;2023-06-24T02:22:06;3.60;;;1.17;;
77984;SDS011;67177;47.240;-1.546;2023-06-24T02:24:35;3.55;;;1.05;;
77984;SDS011;67177;47.240;-1.546;2023-06-24T02:27:03;3.85;;;1.20;;
77984;SDS011;67177;47.240;-1.546;2023-06-24T02:29:30;3.55;;;1.10;;
77984;SDS011;67177;47.240;-1.546;2023-06-24T02:31:57;3.10;;;0.90;;
77984;SDS011;67177;47.240;-1.546;2023-06-24T02:34:23;3.30;;;1.10;;
77984;SDS011;67177;47.240;-1.546;2023-06-24T02:36:49;3.50;;;1.10;;
77984;SDS011;67177;47.240;-1.546;2023-06-24T02:39:15;3.33;;;1.00;;
77984;SDS011;67177;47.240;-1.546;2023-06-24T02:41:40;2.60;;;0.70;;
77984;SDS011;67177;47.240;-1.546;2023-06-24T02:44:07;3.17;;;0.90;;
77984;SDS011;67177;47.240;-1.546;2023-06-24T02:46:33;3.43;;;1.13;;
77984;SDS011;67177;47.240;-1.546;2023-06-24T02:49:01;3.45;;;0.95;;
77984;SDS011;67177;47.240;-1.546;2023-06-24T02:51:28;3.28;;;0.90;;
77984;SDS011;67177;47.240;-1.546;2023-06-24T02:53:55;3.45;;;0.98;;
77984;SDS011;67177;47.240;-1.546;2023-06-24T02:56:23;3.45;;;1.00;;
77984;SDS011;67177;47.240;-1.546;2023-06-24T02:58:51;3.63;;;1.00;;
77984;SDS011;67177;47.240;-1.546;2023-06-24T03:01:18;3.50;;;1.00;;
77984;SDS011;67177;47.240;-1.546;2023-06-24T03:03:49;3.05;;;0.90;;
77984;SDS011;67177;47.240;-1.546;2023-06-24T03:06:19;3.20;;;0.90;;
77984;SDS011;67177;47.240;-1.546;2023-06-24T03:08:46;3.15;;;0.90;;
77984;SDS011;67177;47.240;-1.546;2023-06-24T03:11:13;3.13;;;0.80;;
77984;SDS011;67177;47.240;-1.546;2023-06-24T03:13:39;2.67;;;0.77;;
77984;SDS011;67177;47.240;-1.546;2023-06-24T03:16:05;3.20;;;1.00;;
77984;SDS011;67177;47.240;-1.546;2023-06-24T03:18:46;2.67;;;0.80;;
77984;SDS011;67177;47.240;-1.546;2023-06-24T03:21:11;3.35;;;1.00;;
77984;SDS011;67177;47.240;-1.546;2023-06-24T03:23:37;2.67;;;0.80;;
77984;SDS011;67177;47.240;-1.546;2023-06-24T03:26:05;3.00;;;0.82;;
77984;SDS011;67177;47.240;-1.546;2023-06-24T03:28:32;3.00;;;0.90;;
77984;SDS011;67177;47.240;-1.546;2023-06-24T03:30:58;2.77;;;0.90;;
77984;SDS011;67177;47.240;-1.546;2023-06-24T03:33:24;2.90;;;0.80;;
77984;SDS011;67177;47.240;-1.546;2023-06-24T03:35:51;2.90;;;0.82;;
77984;SDS011;67177;47.240;-1.546;2023-06-24T03:38:17;3.70;;;1.10;;
77984;SDS011;67177;47.240;-1.546;2023-06-24T03:40:43;3.55;;;0.80;;
77984;SDS011;67177;47.240;-1.546;2023-06-24T03:43:09;3.70;;;1.13;;
77984;SDS011;67177;47.240;-1.546;2023-06-24T03:45:34;3.42;;;1.08;;
77984;SDS011;67177;47.240;-1.546;2023-06-24T03:48:00;3.40;;;1.00;;
77984;SDS011;67177;47.240;-1.546;2023-06-24T03:50:26;3.08;;;0.90;;
77984;SDS011;67177;47.240;-1.546;2023-06-24T03:52:51;2.67;;;0.80;;
77984;SDS011;67177;47.240;-1.546;2023-06-24T03:55:17;3.17;;;0.98;;
77984;SDS011;67177;47.240;-1.546;2023-06-24T03:57:43;3.67;;;1.27;;
77984;SDS011;67177;47.240;-1.546;2023-06-24T04:00:08;3.43;;;0.93;;
77984;SDS011;67177;47.240;-1.546;2023-06-24T04:02:40;3.42;;;1.15;;
77984;SDS011;67177;47.240;-1.546;2023-06-24T04:05:07;3.63;;;1.25;;
77984;SDS011;67177;47.240;-1.546;2023-06-24T04:07:33;3.72;;;1.20;;
77984;SDS011;67177;47.240;-1.546;2023-06-24T04:10:00;3.35;;;1.00;;
77984;SDS011;67177;47.240;-1.546;2023-06-24T04:12:29;4.73;;;1.10;;
77984;SDS011;67177;47.240;-1.546;2023-06-24T04:14:54;3.42;;;1.02;;
77984;SDS011;67177;47.240;-1.546;2023-06-24T04:17:20;3.67;;;1.10;;
77984;SDS011;67177;47.240;-1.546;2023-06-24T04:19:46;3.90;;;1.20;;
77984;SDS011;67177;47.240;-1.546;2023-06-24T04:22:11;3.78;;;1.20;;
77984;SDS011;67177;47.240;-1.546;2023-06-24T04:24:37;3.22;;;1.00;;
77984;SDS011;67177;47.240;-1.546;2023-06-24T04:27:03;3.10;;;0.90;;
77984;SDS011;67177;47.240;-1.546;2023-06-24T04:29:29;2.85;;;0.90;;
77984;SDS011;67177;47.240;-1.546;2023-06-24T04:31:54;3.50;;;1.03;;
77984;SDS011;67177;47.240;-1.546;2023-06-24T04:34:20;3.47;;;1.00;;
77984;SDS011;67177;47.240;-1.546;2023-06-24T04:36:46;3.57;;;0.97;;
77984;SDS011;67177;47.240;-1.546;2023-06-24T04:39:11;3.50;;;1.10;;
77984;SDS011;67177;47.240;-1.546;2023-06-24T04:41:37;2.90;;;0.80;;
77984;SDS011;67177;47.240;-1.546;2023-06-24T04:44:02;3.20;;;0.97;;
77984;SDS011;67177;47.240;-1.546;2023-06-24T04:46:28;4.10;;;1.33;;
77984;SDS011;67177;47.240;-1.546;2023-06-24T04:48:54;3.88;;;1.30;;
77984;SDS011;67177;47.240;-1.546;2023-06-24T04:51:20;3.83;;;1.30;;
77984;SDS011;67177;47.240;-1.546;2023-06-24T04:53:45;3.70;;;1.10;;
77984;SDS011;67177;47.240;-1.546;2023-06-24T04:56:11;3.67;;;1.20;;
77984;SDS011;67177;47.240;-1.546;2023-06-24T04:58:37;4.13;;;1.10;;
77984;SDS011;67177;47.240;-1.546;2023-06-24T05:01:02;4.30;;;1.50;;
77984;SDS011;67177;47.240;-1.546;2023-06-24T05:03:28;4.60;;;1.40;;
77984;SDS011;67177;47.240;-1.546;2023-06-24T05:05:54;4.13;;;1.40;;
77984;SDS011;67177;47.240;-1.546;2023-06-24T05:08:19;3.88;;;1.27;;
77984;SDS011;67177;47.240;-1.546;2023-06-24T05:10:45;3.73;;;1.40;;
77984;SDS011;67177;47.240;-1.546;2023-06-24T05:13:10;4.93;;;1.08;;
77984;SDS011;67177;47.240;-1.546;2023-06-24T05:15:36;4.03;;;1.30;;
77984;SDS011;67177;47.240;-1.546;2023-06-24T05:18:02;3.50;;;1.20;;
77984;SDS011;67177;47.240;-1.546;2023-06-24T05:20:27;3.83;;;1.10;;
77984;SDS011;67177;47.240;-1.546;2023-06-24T05:22:53;3.93;;;1.20;;
77984;SDS011;67177;47.240;-1.546;2023-06-24T05:25:19;3.38;;;1.10;;
77984;SDS011;67177;47.240;-1.546;2023-06-24T05:27:45;3.63;;;1.20;;
77984;SDS011;67177;47.240;-1.546;2023-06-24T05:30:10;3.87;;;1.10;;
77984;SDS011;67177;47.240;-1.546;2023-06-24T05:32:37;3.40;;;1.00;;
77984;SDS011;67177;47.240;-1.546;2023-06-24T05:35:03;3.40;;;1.00;;
77984;SDS011;67177;47.240;-1.546;2023-06-24T05:37:30;3.60;;;1.10;;
77984;SDS011;67177;47.240;-1.546;2023-06-24T05:39:55;3.80;;;1.20;;
77984;SDS011;67177;47.240;-1.546;2023-06-24T05:42:22;3.70;;;1.20;;
77984;SDS011;67177;47.240;-1.546;2023-06-24T05:44:48;3.78;;;1.17;;
77984;SDS011;67177;47.240;-1.546;2023-06-24T05:47:14;3.65;;;1.10;;
77984;SDS011;67177;47.240;-1.546;2023-06-24T05:49:39;3.95;;;1.20;;
77984;SDS011;67177;47.240;-1.546;2023-06-24T05:52:05;3.90;;;1.27;;
77984;SDS011;67177;47.240;-1.546;2023-06-24T05:54:31;4.28;;;1.20;;
77984;SDS011;67177;47.240;-1.546;2023-06-24T05:56:57;4.40;;;1.43;;
77984;SDS011;67177;47.240;-1.546;2023-06-24T05:59:22;4.05;;;1.30;;
77984;SDS011;67177;47.240;-1.546;2023-06-24T06:01:48;4.17;;;1.40;;
77984;SDS011;67177;47.240;-1.546;2023-06-24T06:04:14;4.20;;;1.40;;
77984;SDS011;67177;47.240;-1.546;2023-06-24T06:06:39;4.45;;;1.42;;
77984;SDS011;67177;47.240;-1.546;2023-06-24T06:09:05;4.20;;;1.40;;
77984;SDS011;67177;47.240;-1.546;2023-06-24T06:11:31;3.90;;;1.40;;
77984;SDS011;67177;47.240;-1.546;2023-06-24T06:13:57;4.43;;;1.60;;
77984;SDS011;67177;47.240;-1.546;2023-06-24T06:16:22;4.35;;;1.60;;
77984;SDS011;67177;47.240;-1.546;2023-06-24T06:18:48;4.10;;;1.60;;
77984;SDS011;67177;47.240;-1.546;2023-06-24T06:21:14;4.33;;;1.57;;
77984;SDS011;67177;47.240;-1.546;2023-06-24T06:23:40;4.88;;;1.73;;
77984;SDS011;67177;47.240;-1.546;2023-06-24T06:26:05;4.90;;;1.57;;
77984;SDS011;67177;47.240;-1.546;2023-06-24T06:28:31;4.80;;;2.10;;
77984;SDS011;67177;47.240;-1.546;2023-06-24T06:30:56;5.50;;;2.03;;
77984;SDS011;67177;47.240;-1.546;2023-06-24T06:33:22;5.40;;;2.00;;
77984;SDS011;67177;47.240;-1.546;2023-06-24T06:35:48;5.07;;;2.00;;
77984;SDS011;67177;47.240;-1.546;2023-06-24T06:38:13;4.60;;;2.00;;
77984;SDS011;67177;47.240;-1.546;2023-06-24T06:40:39;5.97;;;1.90;;
77984;SDS011;67177;47.240;-1.546;2023-06-24T06:43:05;4.57;;;2.10;;
77984;SDS011;67177;47.240;-1.546;2023-06-24T06:45:31;4.65;;;1.80;;
77984;SDS011;67177;47.240;-1.546;2023-06-24T06:47:57;4.47;;;1.73;;
77984;SDS011;67177;47.240;-1.546;2023-06-24T06:50:23;4.68;;;1.77;;
77984;SDS011;67177;47.240;-1.546;2023-06-24T06:52:49;4.10;;;1.40;;
77984;SDS011;67177;47.240;-1.546;2023-06-24T06:55:15;4.03;;;1.50;;
77984;SDS011;67177;47.240;-1.546;2023-06-24T06:57:40;4.73;;;1.93;;
77984;SDS011;67177;47.240;-1.546;2023-06-24T07:00:06;4.07;;;1.52;;
77984;SDS011;67177;47.240;-1.546;2023-06-24T07:02:32;4.38;;;1.55;;
77984;SDS011;67177;47.240;-1.546;2023-06-24T07:04:58;4.10;;;1.50;;
77984;SDS011;67177;47.240;-1.546;2023-06-24T07:07:25;5.45;;;1.98;;
77984;SDS011;67177;47.240;-1.546;2023-06-24T07:09:51;4.60;;;1.90;;
77984;SDS011;67177;47.240;-1.546;2023-06-24T07:12:17;4.80;;;1.90;;
77984;SDS011;67177;47.240;-1.546;2023-06-24T07:14:43;5.23;;;2.20;;
77984;SDS011;67177;47.240;-1.546;2023-06-24T07:17:09;4.60;;;2.05;;
77984;SDS011;67177;47.240;-1.546;2023-06-24T07:19:34;4.80;;;2.10;;
77984;SDS011;67177;47.240;-1.546;2023-06-24T07:22:00;4.40;;;1.90;;
77984;SDS011;67177;47.240;-1.546;2023-06-24T07:24:26;4.73;;;1.83;;
77984;SDS011;67177;47.240;-1.546;2023-06-24T07:26:51;4.80;;;1.80;;
77984;SDS011;67177;47.240;-1.546;2023-06-24T07:29:17;4.57;;;1.60;;
77984;SDS011;67177;47.240;-1.546;2023-06-24T07:31:43;4.28;;;1.50;;
77984;SDS011;67177;47.240;-1.546;2023-06-24T07:34:08;3.90;;;1.33;;
77984;SDS011;67177;47.240;-1.546;2023-06-24T07:36:34;4.67;;;1.87;;
77984;SDS011;67177;47.240;-1.546;2023-06-24T07:39:00;4.97;;;1.70;;
77984;SDS011;67177;47.240;-1.546;2023-06-24T07:41:25;3.83;;;1.40;;
77984;SDS011;67177;47.240;-1.546;2023-06-24T07:43:51;4.55;;;1.67;;
77984;SDS011;67177;47.240;-1.546;2023-06-24T07:46:17;4.80;;;1.70;;
77984;SDS011;67177;47.240;-1.546;2023-06-24T07:48:43;4.65;;;2.00;;
77984;SDS011;67177;47.240;-1.546;2023-06-24T07:51:09;4.43;;;1.65;;
77984;SDS011;67177;47.240;-1.546;2023-06-24T07:53:34;5.20;;;2.27;;
77984;SDS011;67177;47.240;-1.546;2023-06-24T07:56:00;5.03;;;2.10;;
77984;SDS011;67177;47.240;-1.546;2023-06-24T07:58:25;5.47;;;2.17;;
77984;SDS011;67177;47.240;-1.546;2023-06-24T08:00:51;5.27;;;2.30;;
77984;SDS011;67177;47.240;-1.546;2023-06-24T08:03:17;5.13;;;2.15;;
77984;SDS011;67177;47.240;-1.546;2023-06-24T08:05:42;5.13;;;2.27;;
77984;SDS011;67177;47.240;-1.546;2023-06-24T08:08:08;4.65;;;2.10;;
77984;SDS011;67177;47.240;-1.546;2023-06-24T08:10:34;4.90;;;2.10;;
77984;SDS011;67177;47.240;-1.546;2023-06-24T08:13:00;6.10;;;2.30;;
77984;SDS011;67177;47.240;-1.546;2023-06-24T08:15:25;5.13;;;2.10;;
77984;SDS011;67177;47.240;-1.546;2023-06-24T08:17:51;4.87;;;2.00;;
77984;SDS011;67177;47.240;-1.546;2023-06-24T08:20:19;5.13;;;2.10;;
77984;SDS011;67177;47.240;-1.546;2023-06-24T08:22:48;5.32;;;2.30;;
77984;SDS011;67177;47.240;-1.546;2023-06-24T08:25:14;5.07;;;2.08;;
77984;SDS011;67177;47.240;-1.546;2023-06-24T08:27:40;4.27;;;1.77;;
77984;SDS011;67177;47.240;-1.546;2023-06-24T08:30:06;4.63;;;1.73;;
77984;SDS011;67177;47.240;-1.546;2023-06-24T08:32:32;4.80;;;1.90;;
77984;SDS011;67177;47.240;-1.546;2023-06-24T08:34:58;4.73;;;1.90;;
77984;SDS011;67177;47.240;-1.546;2023-06-24T08:37:24;4.85;;;2.03;;
77984;SDS011;67177;47.240;-1.546;2023-06-24T08:39:49;4.83;;;1.93;;
77984;SDS011;67177;47.240;-1.546;2023-06-24T08:42:15;5.03;;;1.98;;
77984;SDS011;67177;47.240;-1.546;2023-06-24T08:44:40;5.57;;;2.20;;
77984;SDS011;67177;47.240;-1.546;2023-06-24T08:47:06;5.00;;;2.03;;
77984;SDS011;67177;47.240;-1.546;2023-06-24T08:49:32;5.22;;;1.80;;
77984;SDS011;67177;47.240;-1.546;2023-06-24T08:52:13;5.22;;;1.90;;
77984;SDS011;67177;47.240;-1.546;2023-06-24T08:54:40;5.30;;;2.40;;
77984;SDS011;67177;47.240;-1.546;2023-06-24T08:57:10;5.22;;;1.90;;
77984;SDS011;67177;47.240;-1.546;2023-06-24T08:59:39;4.60;;;2.10;;
77984;SDS011;67177;47.240;-1.546;2023-06-24T09:02:06;5.53;;;2.13;;
77984;SDS011;67177;47.240;-1.546;2023-06-24T09:04:32;4.88;;;2.00;;
77984;SDS011;67177;47.240;-1.546;2023-06-24T09:06:57;5.00;;;2.07;;
77984;SDS011;67177;47.240;-1.546;2023-06-24T09:09:23;4.75;;;1.85;;
77984;SDS011;67177;47.240;-1.546;2023-06-24T09:11:53;4.20;;;1.58;;
77984;SDS011;67177;47.240;-1.546;2023-06-24T09:14:20;4.82;;;1.67;;
77984;SDS011;67177;47.240;-1.546;2023-06-24T09:16:53;4.65;;;1.85;;
77984;SDS011;67177;47.240;-1.546;2023-06-24T09:19:26;4.18;;;1.63;;
77984;SDS011;67177;47.240;-1.546;2023-06-24T09:21:54;4.80;;;1.60;;
77984;SDS011;67177;47.240;-1.546;2023-06-24T09:24:30;4.40;;;1.48;;
77984;SDS011;67177;47.240;-1.546;2023-06-24T09:26:56;4.68;;;1.77;;
77984;SDS011;67177;47.240;-1.546;2023-06-24T09:29:25;5.57;;;1.60;;
77984;SDS011;67177;47.240;-1.546;2023-06-24T09:31:52;4.10;;;1.50;;
77984;SDS011;67177;47.240;-1.546;2023-06-24T09:34:18;4.18;;;1.63;;
77984;SDS011;67177;47.240;-1.546;2023-06-24T09:36:44;4.10;;;1.50;;
77984;SDS011;67177;47.240;-1.546;2023-06-24T09:39:15;3.80;;;1.40;;
77984;SDS011;67177;47.240;-1.546;2023-06-24T09:41:41;4.10;;;1.60;;
77984;SDS011;67177;47.240;-1.546;2023-06-24T09:44:09;3.88;;;1.40;;
77984;SDS011;67177;47.240;-1.546;2023-06-24T09:46:36;4.10;;;1.50;;
77984;SDS011;67177;47.240;-1.546;2023-06-24T09:49:05;4.15;;;1.45;;
77984;SDS011;67177;47.240;-1.546;2023-06-24T09:51:36;4.35;;;1.50;;
77984;SDS011;67177;47.240;-1.546;2023-06-24T09:54:05;4.30;;;1.60;;
77984;SDS011;67177;47.240;-1.546;2023-06-24T09:56:52;4.10;;;1.52;;
77984;SDS011;67177;47.240;-1.546;2023-06-24T09:59:18;4.50;;;1.50;;
77984;SDS011;67177;47.240;-1.546;2023-06-24T10:01:45;4.38;;;1.60;;
77984;SDS011;67177;47.240;-1.546;2023-06-24T10:04:15;4.35;;;1.70;;
77984;SDS011;67177;47.240;-1.546;2023-06-24T10:06:43;4.43;;;1.60;;
77984;SDS011;67177;47.240;-1.546;2023-06-24T10:09:09;4.30;;;1.58;;
77984;SDS011;67177;47.240;-1.546;2023-06-24T10:11:35;4.50;;;1.53;;
77984;SDS011;67177;47.240;-1.546;2023-06-24T10:14:01;4.72;;;1.73;;
77984;SDS011;67177;47.240;-1.546;2023-06-24T10:16:27;4.43;;;1.67;;
77984;SDS011;67177;47.240;-1.546;2023-06-24T10:18:58;4.28;;;1.70;;
77984;SDS011;67177;47.240;-1.546;2023-06-24T10:21:44;4.22;;;1.58;;
77984;SDS011;67177;47.240;-1.546;2023-06-24T10:24:12;4.10;;;1.53;;
77984;SDS011;67177;47.240;-1.546;2023-06-24T10:26:39;4.72;;;1.80;;
77984;SDS011;67177;47.240;-1.546;2023-06-24T10:36:55;4.60;;;2.00;;
77984;SDS011;67177;47.240;-1.546;2023-06-24T10:47:22;4.00;;;1.50;;
77984;SDS011;67177;47.240;-1.546;2023-06-24T10:49:49;4.38;;;1.77;;
77984;SDS011;67177;47.240;-1.546;2023-06-24T10:52:16;4.82;;;1.70;;
77984;SDS011;67177;47.240;-1.546;2023-06-24T10:54:47;4.22;;;1.60;;
77984;SDS011;67177;47.240;-1.546;2023-06-24T10:57:14;4.53;;;1.73;;
77984;SDS011;67177;47.240;-1.546;2023-06-24T10:59:48;4.73;;;1.77;;
77984;SDS011;67177;47.240;-1.546;2023-06-24T11:02:17;4.20;;;1.40;;
77984;SDS011;67177;47.240;-1.546;2023-06-24T11:05:02;4.10;;;1.60;;
77984;SDS011;67177;47.240;-1.546;2023-06-24T11:07:29;4.32;;;1.50;;
77984;SDS011;67177;47.240;-1.546;2023-06-24T11:10:06;4.85;;;1.58;;
77984;SDS011;67177;47.240;-1.546;2023-06-24T11:12:34;4.10;;;1.60;;
77984;SDS011;67177;47.240;-1.546;2023-06-24T11:15:02;4.95;;;1.70;;
77984;SDS011;67177;47.240;-1.546;2023-06-24T11:17:29;3.88;;;1.48;;
77984;SDS011;67177;47.240;-1.546;2023-06-24T11:19:56;4.28;;;1.30;;
77984;SDS011;67177;47.240;-1.546;2023-06-24T11:22:23;4.07;;;1.48;;
77984;SDS011;67177;47.240;-1.546;2023-06-24T11:24:49;4.38;;;1.33;;
77984;SDS011;67177;47.240;-1.546;2023-06-24T11:27:15;3.50;;;1.20;;
77984;SDS011;67177;47.240;-1.546;2023-06-24T11:29:41;4.45;;;1.60;;
77984;SDS011;67177;47.240;-1.546;2023-06-24T11:32:07;4.40;;;1.67;;
77984;SDS011;67177;47.240;-1.546;2023-06-24T11:34:34;4.03;;;1.45;;
77984;SDS011;67177;47.240;-1.546;2023-06-24T11:37:10;4.93;;;1.70;;
77984;SDS011;67177;47.240;-1.546;2023-06-24T11:39:37;4.90;;;1.67;;
77984;SDS011;67177;47.240;-1.546;2023-06-24T11:42:05;4.20;;;1.60;;
77984;SDS011;67177;47.240;-1.546;2023-06-24T11:44:33;4.10;;;1.60;;
77984;SDS011;67177;47.240;-1.546;2023-06-24T11:47:05;4.53;;;1.60;;
77984;SDS011;67177;47.240;-1.546;2023-06-24T11:49:32;4.43;;;1.60;;
77984;SDS011;67177;47.240;-1.546;2023-06-24T11:52:17;3.60;;;1.20;;
77984;SDS011;67177;47.240;-1.546;2023-06-24T11:54:43;4.25;;;1.40;;
77984;SDS011;67177;47.240;-1.546;2023-06-24T11:57:08;4.28;;;1.50;;
77984;SDS011;67177;47.240;-1.546;2023-06-24T11:59:34;4.47;;;1.52;;
77984;SDS011;67177;47.240;-1.546;2023-06-24T12:02:00;4.72;;;1.80;;
77984;SDS011;67177;47.240;-1.546;2023-06-24T12:04:31;4.10;;;1.40;;
77984;SDS011;67177;47.240;-1.546;2023-06-24T12:07:02;4.22;;;1.60;;
77984;SDS011;67177;47.240;-1.546;2023-06-24T12:09:28;4.47;;;1.50;;
77984;SDS011;67177;47.240;-1.546;2023-06-24T12:11:54;4.18;;;1.58;;
77984;SDS011;67177;47.240;-1.546;2023-06-24T12:14:20;4.30;;;1.60;;
77984;SDS011;67177;47.240;-1.546;2023-06-24T12:16:45;4.68;;;1.90;;
77984;SDS011;67177;47.240;-1.546;2023-06-24T12:19:11;4.30;;;1.80;;
77984;SDS011;67177;47.240;-1.546;2023-06-24T12:21:37;4.90;;;1.60;;
77984;SDS011;67177;47.240;-1.546;2023-06-24T12:24:04;3.97;;;1.50;;
77984;SDS011;67177;47.240;-1.546;2023-06-24T12:26:30;5.18;;;1.50;;
77984;SDS011;67177;47.240;-1.546;2023-06-24T12:28:57;4.10;;;1.60;;
77984;SDS011;67177;47.240;-1.546;2023-06-24T12:31:25;4.60;;;1.60;;
77984;SDS011;67177;47.240;-1.546;2023-06-24T12:33:51;4.63;;;1.80;;
77984;SDS011;67177;47.240;-1.546;2023-06-24T12:36:18;4.35;;;1.50;;
77984;SDS011;67177;47.240;-1.546;2023-06-24T12:38:44;4.60;;;1.70;;
77984;SDS011;67177;47.240;-1.546;2023-06-24T12:41:10;5.27;;;1.70;;
77984;SDS011;67177;47.240;-1.546;2023-06-24T12:43:35;4.05;;;1.55;;
77984;SDS011;67177;47.240;-1.546;2023-06-24T12:46:01;5.50;;;1.63;;
77984;SDS011;67177;47.240;-1.546;2023-06-24T12:48:27;4.38;;;1.60;;
77984;SDS011;67177;47.240;-1.546;2023-06-24T12:50:52;4.23;;;1.53;;
77984;SDS011;67177;47.240;-1.546;2023-06-24T12:53:18;4.50;;;1.70;;
77984;SDS011;67177;47.240;-1.546;2023-06-24T12:55:45;4.43;;;1.50;;
77984;SDS011;67177;47.240;-1.546;2023-06-24T12:58:12;5.47;;;1.73;;
77984;SDS011;67177;47.240;-1.546;2023-06-24T13:00:38;4.22;;;1.50;;
77984;SDS011;67177;47.240;-1.546;2023-06-24T13:03:04;4.27;;;1.50;;
77984;SDS011;67177;47.240;-1.546;2023-06-24T13:05:30;4.10;;;1.40;;
77984;SDS011;67177;47.240;-1.546;2023-06-24T13:07:56;3.97;;;1.50;;
77984;SDS011;67177;47.240;-1.546;2023-06-24T13:10:21;3.92;;;1.40;;
77984;SDS011;67177;47.240;-1.546;2023-06-24T13:12:47;4.20;;;1.70;;
77984;SDS011;67177;47.240;-1.546;2023-06-24T13:15:13;4.68;;;1.40;;
77984;SDS011;67177;47.240;-1.546;2023-06-24T13:17:39;4.13;;;1.43;;
77984;SDS011;67177;47.240;-1.546;2023-06-24T13:20:05;3.92;;;1.30;;
77984;SDS011;67177;47.240;-1.546;2023-06-24T13:22:31;4.00;;;1.50;;
77984;SDS011;67177;47.240;-1.546;2023-06-24T13:24:57;4.10;;;1.50;;
77984;SDS011;67177;47.240;-1.546;2023-06-24T13:27:23;3.80;;;1.40;;
77984;SDS011;67177;47.240;-1.546;2023-06-24T13:29:48;3.70;;;1.20;;
77984;SDS011;67177;47.240;-1.546;2023-06-24T13:32:14;3.80;;;1.38;;
77984;SDS011;67177;47.240;-1.546;2023-06-24T13:34:40;3.83;;;1.40;;
77984;SDS011;67177;47.240;-1.546;2023-06-24T13:37:06;3.45;;;1.15;;
77984;SDS011;67177;47.240;-1.546;2023-06-24T13:39:31;3.80;;;1.40;;
77984;SDS011;67177;47.240;-1.546;2023-06-24T13:41:57;3.78;;;1.35;;
77984;SDS011;67177;47.240;-1.546;2023-06-24T13:44:23;4.50;;;1.73;;
77984;SDS011;67177;47.240;-1.546;2023-06-24T13:46:49;4.63;;;1.92;;
77984;SDS011;67177;47.240;-1.546;2023-06-24T13:49:15;4.40;;;1.70;;
77984;SDS011;67177;47.240;-1.546;2023-06-24T13:51:41;4.00;;;1.55;;
77984;SDS011;67177;47.240;-1.546;2023-06-24T13:54:07;4.05;;;1.30;;
77984;SDS011;67177;47.240;-1.546;2023-06-24T13:56:33;5.45;;;1.30;;
77984;SDS011;67177;47.240;-1.546;2023-06-24T13:58:59;4.47;;;1.80;;
77984;SDS011;67177;47.240;-1.546;2023-06-24T14:01:25;5.23;;;1.80;;
77984;SDS011;67177;47.240;-1.546;2023-06-24T14:03:53;4.45;;;1.63;;
77984;SDS011;67177;47.240;-1.546;2023-06-24T14:06:20;5.13;;;1.70;;
77984;SDS011;67177;47.240;-1.546;2023-06-24T14:08:46;4.10;;;1.60;;
77984;SDS011;67177;47.240;-1.546;2023-06-24T14:11:12;3.80;;;1.50;;
77984;SDS011;67177;47.240;-1.546;2023-06-24T14:13:37;4.10;;;1.30;;
77984;SDS011;67177;47.240;-1.546;2023-06-24T14:16:03;5.13;;;2.08;;
77984;SDS011;67177;47.240;-1.546;2023-06-24T14:18:29;5.10;;;2.20;;
77984;SDS011;67177;47.240;-1.546;2023-06-24T14:20:58;5.68;;;2.20;;
77984;SDS011;67177;47.240;-1.546;2023-06-24T14:23:25;4.75;;;1.67;;
77984;SDS011;67177;47.240;-1.546;2023-06-24T14:25:51;4.10;;;1.80;;
77984;SDS011;67177;47.240;-1.546;2023-06-24T14:28:17;4.78;;;1.75;;
77984;SDS011;67177;47.240;-1.546;2023-06-24T14:30:43;4.77;;;2.07;;
77984;SDS011;67177;47.240;-1.546;2023-06-24T14:33:09;4.78;;;2.00;;
77984;SDS011;67177;47.240;-1.546;2023-06-24T14:35:34;5.43;;;2.33;;
77984;SDS011;67177;47.240;-1.546;2023-06-24T14:38:00;4.90;;;2.17;;
77984;SDS011;67177;47.240;-1.546;2023-06-24T14:40:26;5.32;;;2.10;;
77984;SDS011;67177;47.240;-1.546;2023-06-24T14:42:51;4.40;;;1.90;;
77984;SDS011;67177;47.240;-1.546;2023-06-24T14:45:17;4.32;;;1.80;;
77984;SDS011;67177;47.240;-1.546;2023-06-24T14:47:43;4.20;;;1.50;;
77984;SDS011;67177;47.240;-1.546;2023-06-24T14:50:09;4.32;;;1.80;;
77984;SDS011;67177;47.240;-1.546;2023-06-24T14:52:35;3.53;;;1.33;;
77984;SDS011;67177;47.240;-1.546;2023-06-24T14:55:00;4.15;;;1.58;;
77984;SDS011;67177;47.240;-1.546;2023-06-24T14:57:26;4.17;;;1.67;;
77984;SDS011;67177;47.240;-1.546;2023-06-24T14:59:52;4.30;;;1.60;;
77984;SDS011;67177;47.240;-1.546;2023-06-24T15:02:17;3.80;;;1.33;;
77984;SDS011;67177;47.240;-1.546;2023-06-24T15:04:43;4.10;;;1.50;;